Tigard, Oregon
Current Conditions -  °F | °C
As of 7:53 PM on Tuesday 25 Nov 2014 (Local Time) from KHIO Reporting Station
Overcast Overcast  
Wind Chill: 58°   Ceiling: 6000
Heat Index: 58°   Visibility: 10mi
Dew Point: 54°   Wind: 9mph
Humidity: 87%   Direction: 180°S
Pressure: 30.27"   Gusts: NA
Location:  45.43°N, 122.76°W
Report Text: KHIO 260353Z 18008KT 10SM OVC060 14/12 A3027 RMK AO2 SLP250 T01440122
Loading
Personal Weather Stations






























Interactive Weather Map New forecast layout! Learn more

10-Day Weather Forecast

Advertisements
Track Severe Weather on mobile